sensor_id;sensor_type;location;lat;lon;timestamp;P1;durP1;ratioP1;P2;durP2;ratioP2
57313;SDS011;53202;50.976;18.216;2022-08-24T00:00:19;46.80;;;32.00;;
57313;SDS011;53202;50.976;18.216;2022-08-24T00:02:48;47.30;;;35.60;;
57313;SDS011;53202;50.976;18.216;2022-08-24T00:05:17;47.30;;;33.20;;
57313;SDS011;53202;50.976;18.216;2022-08-24T00:07:46;46.40;;;33.20;;
57313;SDS011;53202;50.976;18.216;2022-08-24T00:10:13;46.40;;;35.20;;
57313;SDS011;53202;50.976;18.216;2022-08-24T00:12:39;49.30;;;36.00;;
57313;SDS011;53202;50.976;18.216;2022-08-24T00:15:08;50.20;;;37.50;;
57313;SDS011;53202;50.976;18.216;2022-08-24T00:17:36;50.20;;;36.30;;
57313;SDS011;53202;50.976;18.216;2022-08-24T00:20:03;63.80;;;39.60;;
57313;SDS011;53202;50.976;18.216;2022-08-24T00:22:29;58.90;;;40.30;;
57313;SDS011;53202;50.976;18.216;2022-08-24T00:24:58;62.70;;;44.60;;
57313;SDS011;53202;50.976;18.216;2022-08-24T00:27:24;72.00;;;41.40;;
57313;SDS011;53202;50.976;18.216;2022-08-24T00:29:50;66.90;;;44.10;;
57313;SDS011;53202;50.976;18.216;2022-08-24T00:32:16;62.30;;;44.40;;
57313;SDS011;53202;50.976;18.216;2022-08-24T00:34:42;73.40;;;47.80;;
57313;SDS011;53202;50.976;18.216;2022-08-24T00:37:09;72.20;;;47.30;;
57313;SDS011;53202;50.976;18.216;2022-08-24T00:39:38;65.70;;;44.70;;
57313;SDS011;53202;50.976;18.216;2022-08-24T00:42:04;70.70;;;45.50;;
57313;SDS011;53202;50.976;18.216;2022-08-24T00:44:31;71.00;;;45.20;;
57313;SDS011;53202;50.976;18.216;2022-08-24T00:47:03;71.90;;;45.40;;
57313;SDS011;53202;50.976;18.216;2022-08-24T00:49:36;65.50;;;44.90;;
57313;SDS011;53202;50.976;18.216;2022-08-24T00:52:11;72.60;;;45.80;;
57313;SDS011;53202;50.976;18.216;2022-08-24T00:54:43;67.90;;;45.30;;
57313;SDS011;53202;50.976;18.216;2022-08-24T00:57:13;59.30;;;43.10;;
57313;SDS011;53202;50.976;18.216;2022-08-24T00:59:45;68.90;;;44.30;;
57313;SDS011;53202;50.976;18.216;2022-08-24T01:02:16;58.60;;;41.40;;
57313;SDS011;53202;50.976;18.216;2022-08-24T01:04:57;70.40;;;43.20;;
57313;SDS011;53202;50.976;18.216;2022-08-24T01:07:26;68.20;;;43.60;;
57313;SDS011;53202;50.976;18.216;2022-08-24T01:09:55;62.30;;;43.00;;
57313;SDS011;53202;50.976;18.216;2022-08-24T01:12:25;55.90;;;38.80;;
57313;SDS011;53202;50.976;18.216;2022-08-24T01:14:52;63.40;;;40.10;;
57313;SDS011;53202;50.976;18.216;2022-08-24T01:17:20;56.90;;;40.40;;
57313;SDS011;53202;50.976;18.216;2022-08-24T01:20:06;56.10;;;38.00;;
57313;SDS011;53202;50.976;18.216;2022-08-24T01:22:44;61.70;;;41.00;;
57313;SDS011;53202;50.976;18.216;2022-08-24T01:25:21;61.60;;;39.80;;
57313;SDS011;53202;50.976;18.216;2022-08-24T01:27:50;61.00;;;40.70;;
57313;SDS011;53202;50.976;18.216;2022-08-24T01:30:18;63.20;;;41.10;;
57313;SDS011;53202;50.976;18.216;2022-08-24T01:32:52;61.60;;;39.50;;
57313;SDS011;53202;50.976;18.216;2022-08-24T01:35:22;53.80;;;39.30;;
57313;SDS011;53202;50.976;18.216;2022-08-24T01:37:49;51.80;;;37.20;;
57313;SDS011;53202;50.976;18.216;2022-08-24T01:40:16;46.00;;;35.10;;
57313;SDS011;53202;50.976;18.216;2022-08-24T01:42:49;50.70;;;34.90;;
57313;SDS011;53202;50.976;18.216;2022-08-24T01:45:16;46.30;;;34.40;;
57313;SDS011;53202;50.976;18.216;2022-08-24T01:47:47;54.00;;;34.90;;
57313;SDS011;53202;50.976;18.216;2022-08-24T01:50:13;52.80;;;36.20;;
57313;SDS011;53202;50.976;18.216;2022-08-24T01:52:40;48.00;;;34.80;;
57313;SDS011;53202;50.976;18.216;2022-08-24T01:55:08;50.10;;;33.80;;
57313;SDS011;53202;50.976;18.216;2022-08-24T01:57:36;49.90;;;34.20;;
57313;SDS011;53202;50.976;18.216;2022-08-24T02:00:04;52.40;;;34.00;;
57313;SDS011;53202;50.976;18.216;2022-08-24T02:02:33;38.90;;;32.10;;
57313;SDS011;53202;50.976;18.216;2022-08-24T02:04:59;40.30;;;31.40;;
57313;SDS011;53202;50.976;18.216;2022-08-24T02:07:25;43.30;;;31.40;;
57313;SDS011;53202;50.976;18.216;2022-08-24T02:09:51;40.80;;;31.50;;
57313;SDS011;53202;50.976;18.216;2022-08-24T02:12:19;36.30;;;30.20;;
57313;SDS011;53202;50.976;18.216;2022-08-24T02:14:45;39.60;;;30.20;;
57313;SDS011;53202;50.976;18.216;2022-08-24T02:17:12;41.60;;;30.40;;
57313;SDS011;53202;50.976;18.216;2022-08-24T02:19:38;40.80;;;30.40;;
57313;SDS011;53202;50.976;18.216;2022-08-24T02:22:04;56.80;;;33.00;;
57313;SDS011;53202;50.976;18.216;2022-08-24T02:24:32;48.60;;;33.60;;
57313;SDS011;53202;50.976;18.216;2022-08-24T02:26:59;49.40;;;33.50;;
57313;SDS011;53202;50.976;18.216;2022-08-24T02:29:26;51.10;;;32.00;;
57313;SDS011;53202;50.976;18.216;2022-08-24T02:31:53;42.70;;;30.90;;
57313;SDS011;53202;50.976;18.216;2022-08-24T02:34:19;43.90;;;31.50;;
57313;SDS011;53202;50.976;18.216;2022-08-24T02:36:48;42.90;;;32.50;;
57313;SDS011;53202;50.976;18.216;2022-08-24T02:39:16;41.50;;;32.50;;
57313;SDS011;53202;50.976;18.216;2022-08-24T02:41:42;47.80;;;32.10;;
57313;SDS011;53202;50.976;18.216;2022-08-24T02:44:14;48.20;;;32.30;;
57313;SDS011;53202;50.976;18.216;2022-08-24T02:46:40;45.20;;;32.80;;
57313;SDS011;53202;50.976;18.216;2022-08-24T02:49:07;50.90;;;32.10;;
57313;SDS011;53202;50.976;18.216;2022-08-24T02:51:33;43.00;;;32.30;;
57313;SDS011;53202;50.976;18.216;2022-08-24T02:54:00;37.20;;;32.00;;
57313;SDS011;53202;50.976;18.216;2022-08-24T02:56:30;41.50;;;31.50;;
57313;SDS011;53202;50.976;18.216;2022-08-24T02:58:58;45.70;;;30.10;;
57313;SDS011;53202;50.976;18.216;2022-08-24T03:01:26;43.50;;;31.30;;
57313;SDS011;53202;50.976;18.216;2022-08-24T03:03:53;42.10;;;30.50;;
57313;SDS011;53202;50.976;18.216;2022-08-24T03:06:22;36.60;;;30.50;;
57313;SDS011;53202;50.976;18.216;2022-08-24T03:08:49;33.40;;;29.70;;
57313;SDS011;53202;50.976;18.216;2022-08-24T03:11:15;36.20;;;31.60;;
57313;SDS011;53202;50.976;18.216;2022-08-24T03:13:43;36.40;;;31.60;;
57313;SDS011;53202;50.976;18.216;2022-08-24T03:16:10;37.60;;;31.30;;
57313;SDS011;53202;50.976;18.216;2022-08-24T03:18:36;37.90;;;31.70;;
57313;SDS011;53202;50.976;18.216;2022-08-24T03:21:04;44.10;;;33.40;;
57313;SDS011;53202;50.976;18.216;2022-08-24T03:23:33;44.30;;;31.80;;
57313;SDS011;53202;50.976;18.216;2022-08-24T03:26:00;40.20;;;32.90;;
57313;SDS011;53202;50.976;18.216;2022-08-24T03:28:26;42.60;;;33.70;;
57313;SDS011;53202;50.976;18.216;2022-08-24T03:30:53;46.40;;;34.50;;
57313;SDS011;53202;50.976;18.216;2022-08-24T03:33:21;50.70;;;35.40;;
57313;SDS011;53202;50.976;18.216;2022-08-24T03:35:48;52.60;;;34.20;;
57313;SDS011;53202;50.976;18.216;2022-08-24T03:38:14;52.20;;;37.80;;
57313;SDS011;53202;50.976;18.216;2022-08-24T03:40:41;66.40;;;39.10;;
57313;SDS011;53202;50.976;18.216;2022-08-24T03:43:07;59.50;;;37.70;;
57313;SDS011;53202;50.976;18.216;2022-08-24T03:45:53;55.30;;;38.70;;
57313;SDS011;53202;50.976;18.216;2022-08-24T03:48:19;52.50;;;35.40;;
57313;SDS011;53202;50.976;18.216;2022-08-24T03:50:49;56.50;;;40.00;;
57313;SDS011;53202;50.976;18.216;2022-08-24T03:53:16;63.30;;;42.20;;
57313;SDS011;53202;50.976;18.216;2022-08-24T03:55:42;63.50;;;43.30;;
57313;SDS011;53202;50.976;18.216;2022-08-24T03:58:08;68.70;;;41.10;;
57313;SDS011;53202;50.976;18.216;2022-08-24T04:00:38;61.70;;;42.30;;
57313;SDS011;53202;50.976;18.216;2022-08-24T04:03:08;63.00;;;44.30;;
57313;SDS011;53202;50.976;18.216;2022-08-24T04:05:38;59.30;;;40.60;;
57313;SDS011;53202;50.976;18.216;2022-08-24T04:08:06;64.00;;;44.20;;
57313;SDS011;53202;50.976;18.216;2022-08-24T04:10:33;65.90;;;41.60;;
57313;SDS011;53202;50.976;18.216;2022-08-24T04:12:59;64.60;;;42.90;;
57313;SDS011;53202;50.976;18.216;2022-08-24T04:15:26;65.10;;;41.50;;
57313;SDS011;53202;50.976;18.216;2022-08-24T04:17:52;57.90;;;42.30;;
57313;SDS011;53202;50.976;18.216;2022-08-24T04:20:18;63.50;;;39.80;;
57313;SDS011;53202;50.976;18.216;2022-08-24T04:22:44;64.90;;;44.30;;
57313;SDS011;53202;50.976;18.216;2022-08-24T04:25:11;66.80;;;43.80;;
57313;SDS011;53202;50.976;18.216;2022-08-24T04:27:38;76.40;;;42.60;;
57313;SDS011;53202;50.976;18.216;2022-08-24T04:30:05;63.40;;;44.50;;
57313;SDS011;53202;50.976;18.216;2022-08-24T04:32:34;61.70;;;42.10;;
57313;SDS011;53202;50.976;18.216;2022-08-24T04:35:02;59.40;;;42.30;;
57313;SDS011;53202;50.976;18.216;2022-08-24T04:37:31;64.40;;;44.40;;
57313;SDS011;53202;50.976;18.216;2022-08-24T04:39:57;63.30;;;45.60;;
57313;SDS011;53202;50.976;18.216;2022-08-24T04:42:23;61.90;;;44.00;;
57313;SDS011;53202;50.976;18.216;2022-08-24T04:44:51;67.40;;;44.90;;
57313;SDS011;53202;50.976;18.216;2022-08-24T04:47:17;67.00;;;48.90;;
57313;SDS011;53202;50.976;18.216;2022-08-24T04:49:46;80.30;;;55.80;;
57313;SDS011;53202;50.976;18.216;2022-08-24T04:52:15;76.80;;;55.00;;
57313;SDS011;53202;50.976;18.216;2022-08-24T04:54:44;100.90;;;57.80;;
57313;SDS011;53202;50.976;18.216;2022-08-24T04:57:11;92.90;;;57.30;;
57313;SDS011;53202;50.976;18.216;2022-08-24T04:59:41;85.90;;;55.70;;
57313;SDS011;53202;50.976;18.216;2022-08-24T05:02:09;90.10;;;55.40;;
57313;SDS011;53202;50.976;18.216;2022-08-24T05:04:35;104.30;;;51.80;;
57313;SDS011;53202;50.976;18.216;2022-08-24T05:07:03;68.80;;;51.10;;
57313;SDS011;53202;50.976;18.216;2022-08-24T05:09:29;65.90;;;49.30;;
57313;SDS011;53202;50.976;18.216;2022-08-24T05:11:56;73.90;;;54.20;;
57313;SDS011;53202;50.976;18.216;2022-08-24T05:14:22;82.70;;;54.10;;
57313;SDS011;53202;50.976;18.216;2022-08-24T05:16:48;73.90;;;51.80;;
57313;SDS011;53202;50.976;18.216;2022-08-24T05:19:14;66.60;;;50.00;;
57313;SDS011;53202;50.976;18.216;2022-08-24T05:21:41;64.90;;;51.20;;
57313;SDS011;53202;50.976;18.216;2022-08-24T05:24:09;62.10;;;49.80;;
57313;SDS011;53202;50.976;18.216;2022-08-24T05:26:38;70.30;;;50.60;;
57313;SDS011;53202;50.976;18.216;2022-08-24T05:29:05;64.10;;;49.60;;
57313;SDS011;53202;50.976;18.216;2022-08-24T05:31:32;55.30;;;46.20;;
57313;SDS011;53202;50.976;18.216;2022-08-24T05:34:00;56.30;;;46.20;;
57313;SDS011;53202;50.976;18.216;2022-08-24T05:36:28;53.40;;;42.30;;
57313;SDS011;53202;50.976;18.216;2022-08-24T05:38:56;53.10;;;43.80;;
57313;SDS011;53202;50.976;18.216;2022-08-24T05:41:25;56.10;;;43.90;;
57313;SDS011;53202;50.976;18.216;2022-08-24T05:43:53;55.90;;;43.40;;
57313;SDS011;53202;50.976;18.216;2022-08-24T05:46:19;43.60;;;38.10;;
57313;SDS011;53202;50.976;18.216;2022-08-24T05:48:46;44.00;;;35.70;;
57313;SDS011;53202;50.976;18.216;2022-08-24T05:51:12;35.30;;;28.80;;
57313;SDS011;53202;50.976;18.216;2022-08-24T05:53:39;49.50;;;26.90;;
57313;SDS011;53202;50.976;18.216;2022-08-24T05:56:10;34.80;;;28.90;;
57313;SDS011;53202;50.976;18.216;2022-08-24T06:01:11;35.50;;;30.50;;
57313;SDS011;53202;50.976;18.216;2022-08-24T06:03:40;33.40;;;29.30;;
57313;SDS011;53202;50.976;18.216;2022-08-24T06:06:07;42.50;;;35.00;;
57313;SDS011;53202;50.976;18.216;2022-08-24T06:08:37;41.50;;;36.20;;
57313;SDS011;53202;50.976;18.216;2022-08-24T06:11:04;48.50;;;36.50;;
57313;SDS011;53202;50.976;18.216;2022-08-24T06:13:31;43.90;;;35.70;;
57313;SDS011;53202;50.976;18.216;2022-08-24T06:16:08;45.00;;;33.50;;
57313;SDS011;53202;50.976;18.216;2022-08-24T06:18:36;37.80;;;32.50;;
57313;SDS011;53202;50.976;18.216;2022-08-24T06:21:04;37.80;;;30.80;;
57313;SDS011;53202;50.976;18.216;2022-08-24T06:23:31;32.60;;;27.90;;
57313;SDS011;53202;50.976;18.216;2022-08-24T06:25:58;40.10;;;28.40;;
57313;SDS011;53202;50.976;18.216;2022-08-24T06:28:45;34.10;;;29.50;;
57313;SDS011;53202;50.976;18.216;2022-08-24T06:31:14;30.90;;;27.60;;
57313;SDS011;53202;50.976;18.216;2022-08-24T06:33:40;30.90;;;27.60;;
57313;SDS011;53202;50.976;18.216;2022-08-24T06:36:06;32.00;;;27.60;;
57313;SDS011;53202;50.976;18.216;2022-08-24T06:38:34;31.50;;;28.20;;
57313;SDS011;53202;50.976;18.216;2022-08-24T06:41:01;33.80;;;29.40;;
57313;SDS011;53202;50.976;18.216;2022-08-24T06:43:30;38.20;;;29.60;;
57313;SDS011;53202;50.976;18.216;2022-08-24T06:45:56;34.00;;;26.40;;
57313;SDS011;53202;50.976;18.216;2022-08-24T06:48:22;33.40;;;27.10;;
57313;SDS011;53202;50.976;18.216;2022-08-24T06:50:49;31.60;;;23.00;;
57313;SDS011;53202;50.976;18.216;2022-08-24T06:53:17;32.50;;;25.20;;
57313;SDS011;53202;50.976;18.216;2022-08-24T06:55:51;28.10;;;23.20;;
57313;SDS011;53202;50.976;18.216;2022-08-24T06:58:21;30.80;;;24.90;;
57313;SDS011;53202;50.976;18.216;2022-08-24T07:00:53;30.60;;;24.50;;
57313;SDS011;53202;50.976;18.216;2022-08-24T07:03:20;31.90;;;26.50;;
57313;SDS011;53202;50.976;18.216;2022-08-24T07:05:48;26.50;;;23.60;;
57313;SDS011;53202;50.976;18.216;2022-08-24T07:08:23;27.60;;;22.80;;
57313;SDS011;53202;50.976;18.216;2022-08-24T07:10:49;30.00;;;25.00;;
57313;SDS011;53202;50.976;18.216;2022-08-24T07:13:17;30.90;;;24.20;;
57313;SDS011;53202;50.976;18.216;2022-08-24T07:15:45;32.50;;;24.30;;
57313;SDS011;53202;50.976;18.216;2022-08-24T07:18:13;32.20;;;24.50;;
57313;SDS011;53202;50.976;18.216;2022-08-24T07:20:39;28.60;;;24.80;;
57313;SDS011;53202;50.976;18.216;2022-08-24T07:23:06;32.30;;;24.80;;
57313;SDS011;53202;50.976;18.216;2022-08-24T07:25:36;31.50;;;24.60;;
57313;SDS011;53202;50.976;18.216;2022-08-24T07:28:04;35.90;;;25.70;;
57313;SDS011;53202;50.976;18.216;2022-08-24T07:30:33;28.40;;;24.70;;
57313;SDS011;53202;50.976;18.216;2022-08-24T07:32:59;27.60;;;24.70;;
57313;SDS011;53202;50.976;18.216;2022-08-24T07:35:26;34.50;;;24.60;;
57313;SDS011;53202;50.976;18.216;2022-08-24T07:37:55;27.80;;;24.80;;
57313;SDS011;53202;50.976;18.216;2022-08-24T07:40:25;32.20;;;25.30;;
57313;SDS011;53202;50.976;18.216;2022-08-24T07:42:52;33.10;;;23.60;;
57313;SDS011;53202;50.976;18.216;2022-08-24T07:45:52;32.80;;;26.30;;
57313;SDS011;53202;50.976;18.216;2022-08-24T07:48:18;34.30;;;27.60;;
57313;SDS011;53202;50.976;18.216;2022-08-24T07:50:44;29.30;;;26.10;;
57313;SDS011;53202;50.976;18.216;2022-08-24T07:53:11;38.60;;;26.30;;
57313;SDS011;53202;50.976;18.216;2022-08-24T07:55:37;30.80;;;25.50;;
57313;SDS011;53202;50.976;18.216;2022-08-24T07:58:03;30.30;;;27.10;;
57313;SDS011;53202;50.976;18.216;2022-08-24T08:00:30;45.90;;;27.70;;
57313;SDS011;53202;50.976;18.216;2022-08-24T08:02:56;35.10;;;28.00;;
57313;SDS011;53202;50.976;18.216;2022-08-24T08:05:22;31.50;;;27.60;;
57313;SDS011;53202;50.976;18.216;2022-08-24T08:07:49;31.20;;;27.20;;
57313;SDS011;53202;50.976;18.216;2022-08-24T08:10:15;35.00;;;27.90;;
57313;SDS011;53202;50.976;18.216;2022-08-24T08:12:41;33.10;;;26.20;;
57313;SDS011;53202;50.976;18.216;2022-08-24T08:15:08;33.80;;;28.30;;
57313;SDS011;53202;50.976;18.216;2022-08-24T08:17:35;36.50;;;27.70;;
57313;SDS011;53202;50.976;18.216;2022-08-24T08:20:04;32.10;;;26.20;;
57313;SDS011;53202;50.976;18.216;2022-08-24T08:22:32;28.70;;;25.60;;
57313;SDS011;53202;50.976;18.216;2022-08-24T08:25:13;29.40;;;24.40;;
57313;SDS011;53202;50.976;18.216;2022-08-24T08:27:39;33.00;;;23.20;;
57313;SDS011;53202;50.976;18.216;2022-08-24T08:30:05;32.50;;;25.40;;
57313;SDS011;53202;50.976;18.216;2022-08-24T08:32:32;29.40;;;23.10;;
57313;SDS011;53202;50.976;18.216;2022-08-24T08:34:59;29.40;;;22.50;;
57313;SDS011;53202;50.976;18.216;2022-08-24T08:37:24;29.80;;;21.10;;
57313;SDS011;53202;50.976;18.216;2022-08-24T08:39:50;28.20;;;21.80;;
57313;SDS011;53202;50.976;18.216;2022-08-24T08:45:10;40.10;;;23.70;;
57313;SDS011;53202;50.976;18.216;2022-08-24T08:54:10;36.50;;;24.30;;
57313;SDS011;53202;50.976;18.216;2022-08-24T09:11:35;36.30;;;24.10;;
57313;SDS011;53202;50.976;18.216;2022-08-24T09:20:18;26.50;;;19.50;;
57313;SDS011;53202;50.976;18.216;2022-08-24T09:25:42;24.70;;;18.20;;
57313;SDS011;53202;50.976;18.216;2022-08-24T09:28:26;29.60;;;18.90;;
57313;SDS011;53202;50.976;18.216;2022-08-24T09:34:17;25.80;;;17.70;;
57313;SDS011;53202;50.976;18.216;2022-08-24T09:37:00;25.30;;;16.70;;
57313;SDS011;53202;50.976;18.216;2022-08-24T09:39:53;28.30;;;18.10;;
57313;SDS011;53202;50.976;18.216;2022-08-24T09:42:33;29.10;;;19.40;;
57313;SDS011;53202;50.976;18.216;2022-08-24T09:45:17;31.70;;;19.60;;
57313;SDS011;53202;50.976;18.216;2022-08-24T09:48:03;26.30;;;17.90;;
57313;SDS011;53202;50.976;18.216;2022-08-24T09:51:06;29.70;;;17.80;;
57313;SDS011;53202;50.976;18.216;2022-08-24T09:56:37;19.80;;;14.10;;
57313;SDS011;53202;50.976;18.216;2022-08-24T09:59:35;25.40;;;14.40;;
57313;SDS011;53202;50.976;18.216;2022-08-24T10:05:17;33.80;;;16.30;;
57313;SDS011;53202;50.976;18.216;2022-08-24T10:08:06;28.00;;;16.30;;
57313;SDS011;53202;50.976;18.216;2022-08-24T10:13:59;26.70;;;17.10;;
57313;SDS011;53202;50.976;18.216;2022-08-24T10:16:37;30.20;;;15.70;;
57313;SDS011;53202;50.976;18.216;2022-08-24T10:19:15;28.90;;;15.40;;
57313;SDS011;53202;50.976;18.216;2022-08-24T10:22:31;28.60;;;16.00;;
57313;SDS011;53202;50.976;18.216;2022-08-24T10:27:53;24.50;;;16.40;;
57313;SDS011;53202;50.976;18.216;2022-08-24T10:30:39;28.00;;;17.60;;
57313;SDS011;53202;50.976;18.216;2022-08-24T10:33:22;29.00;;;16.80;;
57313;SDS011;53202;50.976;18.216;2022-08-24T10:35:57;26.70;;;16.20;;
57313;SDS011;53202;50.976;18.216;2022-08-24T10:38:55;29.80;;;14.70;;
57313;SDS011;53202;50.976;18.216;2022-08-24T10:42:20;33.10;;;15.10;;
57313;SDS011;53202;50.976;18.216;2022-08-24T10:51:24;34.00;;;14.00;;
57313;SDS011;53202;50.976;18.216;2022-08-24T10:54:04;23.80;;;12.60;;
57313;SDS011;53202;50.976;18.216;2022-08-24T10:59:16;31.00;;;11.90;;
57313;SDS011;53202;50.976;18.216;2022-08-24T11:01:58;33.10;;;11.70;;
57313;SDS011;53202;50.976;18.216;2022-08-24T11:04:31;34.50;;;12.70;;
57313;SDS011;53202;50.976;18.216;2022-08-24T11:07:06;36.20;;;12.90;;
57313;SDS011;53202;50.976;18.216;2022-08-24T11:09:43;24.50;;;10.90;;
57313;SDS011;53202;50.976;18.216;2022-08-24T11:12:20;23.50;;;11.00;;
57313;SDS011;53202;50.976;18.216;2022-08-24T11:14:49;30.70;;;11.70;;
57313;SDS011;53202;50.976;18.216;2022-08-24T11:17:18;30.70;;;11.20;;
57313;SDS011;53202;50.976;18.216;2022-08-24T11:19:48;38.80;;;11.90;;
57313;SDS011;53202;50.976;18.216;2022-08-24T11:22:37;23.60;;;11.10;;
57313;SDS011;53202;50.976;18.216;2022-08-24T11:25:09;30.40;;;9.90;;
57313;SDS011;53202;50.976;18.216;2022-08-24T11:27:43;32.10;;;11.50;;
57313;SDS011;53202;50.976;18.216;2022-08-24T11:30:20;20.70;;;10.10;;
57313;SDS011;53202;50.976;18.216;2022-08-24T11:32:52;27.50;;;11.20;;
57313;SDS011;53202;50.976;18.216;2022-08-24T11:35:26;21.80;;;9.90;;
57313;SDS011;53202;50.976;18.216;2022-08-24T11:40:43;26.50;;;9.70;;
57313;SDS011;53202;50.976;18.216;2022-08-24T11:43:23;25.90;;;10.60;;
57313;SDS011;53202;50.976;18.216;2022-08-24T11:48:56;20.50;;;8.20;;
57313;SDS011;53202;50.976;18.216;2022-08-24T11:51:49;21.60;;;8.80;;
57313;SDS011;53202;50.976;18.216;2022-08-24T11:54:42;19.70;;;8.70;;
57313;SDS011;53202;50.976;18.216;2022-08-24T11:57:17;22.90;;;9.00;;
57313;SDS011;53202;50.976;18.216;2022-08-24T12:00:25;21.70;;;8.90;;
57313;SDS011;53202;50.976;18.216;2022-08-24T12:03:01;23.60;;;9.00;;
57313;SDS011;53202;50.976;18.216;2022-08-24T12:05:43;21.80;;;8.20;;
57313;SDS011;53202;50.976;18.216;2022-08-24T12:08:19;22.80;;;8.70;;
57313;SDS011;53202;50.976;18.216;2022-08-24T12:10:55;29.60;;;8.40;;
57313;SDS011;53202;50.976;18.216;2022-08-24T12:13:33;24.10;;;9.10;;
57313;SDS011;53202;50.976;18.216;2022-08-24T12:16:24;18.70;;;7.50;;
57313;SDS011;53202;50.976;18.216;2022-08-24T12:19:06;21.10;;;8.80;;
57313;SDS011;53202;50.976;18.216;2022-08-24T12:21:39;19.10;;;8.60;;
57313;SDS011;53202;50.976;18.216;2022-08-24T12:24:08;24.50;;;8.90;;
57313;SDS011;53202;50.976;18.216;2022-08-24T12:26:46;23.90;;;9.40;;
57313;SDS011;53202;50.976;18.216;2022-08-24T12:29:17;24.60;;;9.50;;
57313;SDS011;53202;50.976;18.216;2022-08-24T12:31:57;22.80;;;9.40;;
57313;SDS011;53202;50.976;18.216;2022-08-24T12:37:27;21.50;;;9.30;;
57313;SDS011;53202;50.976;18.216;2022-08-24T12:40:04;19.20;;;8.80;;
57313;SDS011;53202;50.976;18.216;2022-08-24T12:42:48;26.70;;;8.80;;
57313;SDS011;53202;50.976;18.216;2022-08-24T12:45:20;20.50;;;8.80;;
57313;SDS011;53202;50.976;18.216;2022-08-24T12:50:39;24.30;;;8.10;;
57313;SDS011;53202;50.976;18.216;2022-08-24T12:53:30;19.20;;;8.10;;
57313;SDS011;53202;50.976;18.216;2022-08-24T12:56:27;16.10;;;8.00;;
57313;SDS011;53202;50.976;18.216;2022-08-24T12:59:16;35.50;;;9.20;;
57313;SDS011;53202;50.976;18.216;2022-08-24T13:01:54;33.60;;;8.90;;
57313;SDS011;53202;50.976;18.216;2022-08-24T13:04:31;21.90;;;8.40;;
57313;SDS011;53202;50.976;18.216;2022-08-24T13:10:03;29.80;;;9.60;;
57313;SDS011;53202;50.976;18.216;2022-08-24T13:12:50;17.40;;;7.90;;
57313;SDS011;53202;50.976;18.216;2022-08-24T13:15:24;15.30;;;8.10;;
57313;SDS011;53202;50.976;18.216;2022-08-24T13:17:54;31.00;;;9.80;;
57313;SDS011;53202;50.976;18.216;2022-08-24T13:20:51;21.70;;;9.20;;
57313;SDS011;53202;50.976;18.216;2022-08-24T13:23:20;22.60;;;9.60;;
57313;SDS011;53202;50.976;18.216;2022-08-24T13:25:52;24.40;;;8.90;;
57313;SDS011;53202;50.976;18.216;2022-08-24T13:33:53;25.10;;;9.20;;
57313;SDS011;53202;50.976;18.216;2022-08-24T13:39:35;20.80;;;8.70;;
57313;SDS011;53202;50.976;18.216;2022-08-24T13:42:39;33.00;;;10.40;;
57313;SDS011;53202;50.976;18.216;2022-08-24T13:45:56;29.00;;;10.10;;
57313;SDS011;53202;50.976;18.216;2022-08-24T13:48:21;30.80;;;11.90;;
57313;SDS011;53202;50.976;18.216;2022-08-24T13:53:44;27.10;;;10.40;;
57313;SDS011;53202;50.976;18.216;2022-08-24T13:56:26;26.70;;;10.50;;
57313;SDS011;53202;50.976;18.216;2022-08-24T13:59:03;22.90;;;9.30;;
57313;SDS011;53202;50.976;18.216;2022-08-24T14:02:02;29.20;;;11.40;;
57313;SDS011;53202;50.976;18.216;2022-08-24T14:04:38;32.80;;;9.90;;
57313;SDS011;53202;50.976;18.216;2022-08-24T14:07:29;23.80;;;9.80;;
57313;SDS011;53202;50.976;18.216;2022-08-24T14:16:00;25.90;;;11.00;;
57313;SDS011;53202;50.976;18.216;2022-08-24T14:19:02;31.50;;;11.20;;
57313;SDS011;53202;50.976;18.216;2022-08-24T14:21:40;25.60;;;10.90;;
57313;SDS011;53202;50.976;18.216;2022-08-24T14:24:21;24.90;;;10.60;;
57313;SDS011;53202;50.976;18.216;2022-08-24T14:26:56;31.20;;;10.90;;
57313;SDS011;53202;50.976;18.216;2022-08-24T14:29:29;35.90;;;11.70;;
57313;SDS011;53202;50.976;18.216;2022-08-24T14:34:57;34.60;;;11.10;;
57313;SDS011;53202;50.976;18.216;2022-08-24T14:42:57;37.90;;;11.80;;
57313;SDS011;53202;50.976;18.216;2022-08-24T14:45:33;31.40;;;10.30;;
57313;SDS011;53202;50.976;18.216;2022-08-24T14:54:00;24.90;;;11.40;;
57313;SDS011;53202;50.976;18.216;2022-08-24T14:56:42;36.00;;;11.80;;
57313;SDS011;53202;50.976;18.216;2022-08-24T14:59:29;25.50;;;9.80;;
57313;SDS011;53202;50.976;18.216;2022-08-24T15:07:54;34.10;;;10.60;;
57313;SDS011;53202;50.976;18.216;2022-08-24T15:10:26;29.90;;;10.80;;
57313;SDS011;53202;50.976;18.216;2022-08-24T15:12:56;24.70;;;10.70;;
57313;SDS011;53202;50.976;18.216;2022-08-24T15:15:27;26.60;;;10.50;;
57313;SDS011;53202;50.976;18.216;2022-08-24T15:20:55;26.50;;;11.20;;
57313;SDS011;53202;50.976;18.216;2022-08-24T15:26:24;31.70;;;11.80;;
57313;SDS011;53202;50.976;18.216;2022-08-24T15:28:57;32.30;;;12.20;;
57313;SDS011;53202;50.976;18.216;2022-08-24T15:31:27;20.30;;;11.10;;
57313;SDS011;53202;50.976;18.216;2022-08-24T15:33:55;25.80;;;10.40;;
57313;SDS011;53202;50.976;18.216;2022-08-24T15:36:24;31.00;;;11.10;;
57313;SDS011;53202;50.976;18.216;2022-08-24T15:38:52;28.80;;;11.20;;
57313;SDS011;53202;50.976;18.216;2022-08-24T15:41:20;25.70;;;10.50;;
57313;SDS011;53202;50.976;18.216;2022-08-24T15:43:58;23.50;;;10.60;;
57313;SDS011;53202;50.976;18.216;2022-08-24T15:46:34;27.00;;;11.20;;
57313;SDS011;53202;50.976;18.216;2022-08-24T15:49:05;26.20;;;10.50;;
57313;SDS011;53202;50.976;18.216;2022-08-24T15:51:42;21.40;;;9.60;;
57313;SDS011;53202;50.976;18.216;2022-08-24T15:54:26;21.90;;;9.70;;
57313;SDS011;53202;50.976;18.216;2022-08-24T15:57:10;25.60;;;10.50;;
57313;SDS011;53202;50.976;18.216;2022-08-24T15:59:52;21.30;;;10.60;;
57313;SDS011;53202;50.976;18.216;2022-08-24T16:02:22;24.60;;;10.20;;
57313;SDS011;53202;50.976;18.216;2022-08-24T16:10:37;25.30;;;10.80;;
57313;SDS011;53202;50.976;18.216;2022-08-24T16:13:24;27.90;;;10.80;;
57313;SDS011;53202;50.976;18.216;2022-08-24T16:16:01;23.20;;;9.90;;
57313;SDS011;53202;50.976;18.216;2022-08-24T16:18:43;29.70;;;11.90;;
57313;SDS011;53202;50.976;18.216;2022-08-24T16:21:23;23.60;;;10.90;;
57313;SDS011;53202;50.976;18.216;2022-08-24T16:24:06;17.50;;;10.60;;
57313;SDS011;53202;50.976;18.216;2022-08-24T16:26:51;29.70;;;11.20;;
57313;SDS011;53202;50.976;18.216;2022-08-24T16:34:55;35.10;;;11.80;;
57313;SDS011;53202;50.976;18.216;2022-08-24T16:37:40;26.70;;;10.90;;
57313;SDS011;53202;50.976;18.216;2022-08-24T16:40:06;28.90;;;11.60;;
57313;SDS011;53202;50.976;18.216;2022-08-24T16:42:33;19.00;;;9.60;;
57313;SDS011;53202;50.976;18.216;2022-08-24T16:45:00;26.80;;;10.80;;
57313;SDS011;53202;50.976;18.216;2022-08-24T16:47:29;22.80;;;9.30;;
57313;SDS011;53202;50.976;18.216;2022-08-24T16:49:55;23.30;;;9.30;;